createdAt,value
2019-01-16T00:00:59.546Z,67.73
2019-01-16T00:03:47.689Z,67.17
2019-01-16T00:06:35.814Z,66.97
2019-01-16T00:09:44.423Z,67.50
2019-01-16T00:12:32.831Z,67.57
2019-01-16T00:15:21.002Z,67.51
2019-01-16T00:18:28.251Z,67.93
2019-01-16T00:21:16.359Z,67.77
2019-01-16T00:24:04.501Z,67.09
2019-01-16T00:26:52.633Z,67.36
2019-01-16T00:29:33.550Z,66.95
2019-01-16T00:32:21.653Z,67.17
2019-01-16T00:35:10.156Z,67.22
2019-01-16T00:37:58.265Z,66.71
2019-01-16T00:40:46.673Z,66.96
2019-01-16T00:43:34.813Z,66.83
2019-01-16T00:46:23.194Z,66.96
2019-01-16T00:49:11.322Z,67.25
2019-01-16T00:51:59.436Z,67.43
2019-01-16T00:54:47.772Z,67.42
2019-01-16T00:57:36.153Z,67.53
2019-01-16T01:00:46.128Z,67.49
2019-01-16T01:03:34.243Z,67.71
2019-01-16T01:06:22.377Z,67.86
2019-01-16T01:09:10.611Z,68.17
2019-01-16T01:11:59.004Z,68.05
2019-01-16T01:14:47.141Z,68.31
2019-01-16T01:17:35.247Z,68.24
2019-01-16T01:20:24.236Z,67.72
2019-01-16T01:23:00.995Z,67.92
2019-01-16T01:25:49.138Z,67.32
2019-01-16T01:28:26.338Z,67.12
2019-01-16T01:31:14.516Z,67.01
2019-01-16T01:34:02.623Z,67.28
2019-01-16T01:36:50.757Z,67.29
2019-01-16T01:39:38.864Z,67.26
2019-01-16T01:42:19.810Z,67.42
2019-01-16T01:45:07.942Z,67.59
2019-01-16T01:47:56.051Z,67.42
2019-01-16T01:50:44.469Z,67.49
2019-01-16T01:53:32.573Z,67.85
2019-01-16T01:56:20.702Z,67.95
2019-01-16T01:59:08.809Z,67.90
2019-01-16T02:01:56.940Z,68.02
2019-01-16T02:04:45.043Z,67.83
2019-01-16T02:07:33.178Z,67.92
2019-01-16T02:10:12.609Z,67.71
2019-01-16T02:13:00.739Z,67.64
2019-01-16T02:15:48.874Z,68.03
2019-01-16T02:18:36.991Z,68.08
2019-01-16T02:21:26.861Z,67.89
2019-01-16T02:24:14.955Z,67.97
2019-01-16T02:27:03.116Z,68.33
2019-01-16T02:29:51.234Z,68.37
2019-01-16T02:32:39.369Z,68.22
2019-01-16T02:35:21.154Z,67.81
2019-01-16T02:37:57.652Z,67.93
2019-01-16T02:40:45.795Z,68.05
2019-01-16T02:43:33.912Z,67.50
2019-01-16T02:46:22.052Z,67.88
2019-01-16T02:49:10.175Z,67.90
2019-01-16T02:51:58.298Z,67.51
2019-01-16T02:54:46.406Z,67.52
2019-01-16T02:57:34.567Z,67.27
2019-01-16T03:03:31.234Z,67.28
2019-01-16T03:06:10.020Z,67.41
2019-01-16T03:08:58.124Z,67.26
2019-01-16T03:11:46.536Z,67.29
2019-01-16T03:14:34.647Z,67.62
2019-01-16T03:17:22.779Z,67.58
2019-01-16T03:20:11.163Z,67.75
2019-01-16T03:22:59.299Z,67.67
2019-01-16T03:25:47.420Z,67.58
2019-01-16T03:28:35.585Z,67.42
2019-01-16T03:31:44.184Z,67.38
2019-01-16T03:34:32.284Z,67.27
2019-01-16T03:37:13.103Z,66.96
2019-01-16T03:40:01.233Z,66.94
2019-01-16T03:42:49.370Z,66.84
2019-01-16T03:45:37.474Z,66.97
2019-01-16T03:48:17.681Z,66.82
2019-01-16T03:51:05.831Z,66.82
2019-01-16T03:53:54.440Z,67.11
2019-01-16T03:56:42.580Z,67.32
2019-01-16T03:59:30.741Z,67.50
2019-01-16T04:02:26.280Z,67.17
2019-01-16T04:05:14.385Z,67.37
2019-01-16T04:08:02.518Z,67.16
2019-01-16T04:10:50.991Z,67.08
2019-01-16T04:13:39.406Z,66.87
2019-01-16T04:16:27.522Z,67.29
2019-01-16T04:19:21.620Z,67.29
2019-01-16T04:22:05.820Z,67.07
2019-01-16T04:24:53.923Z,67.13
2019-01-16T04:27:30.637Z,67.02
2019-01-16T04:30:18.737Z,66.55
2019-01-16T04:33:06.869Z,66.40
2019-01-16T04:35:54.983Z,66.09
2019-01-16T04:38:43.123Z,66.19
2019-01-16T04:41:31.233Z,66.30
2019-01-16T04:44:19.376Z,66.31
2019-01-16T04:47:07.485Z,66.59
2019-01-16T04:49:55.623Z,66.53
2019-01-16T04:52:38.084Z,66.22
2019-01-16T04:55:46.665Z,66.29
2019-01-16T04:58:34.797Z,66.42
2019-01-16T05:01:22.909Z,66.37
2019-01-16T05:04:11.040Z,66.24
2019-01-16T05:06:59.149Z,66.66
2019-01-16T05:09:47.275Z,66.82
2019-01-16T05:12:29.443Z,66.98
2019-01-16T05:15:07.310Z,67.06
2019-01-16T05:17:55.480Z,67.17
2019-01-16T05:20:43.593Z,67.64
2019-01-16T05:23:29.686Z,67.63
2019-01-16T05:26:18.083Z,67.48
2019-01-16T05:31:59.739Z,67.17
2019-01-16T05:34:47.875Z,67.46
2019-01-16T05:37:36.032Z,67.62
2019-01-16T05:40:46.049Z,67.23
2019-01-16T05:43:34.479Z,67.14
2019-01-16T05:46:22.863Z,67.44
2019-01-16T05:49:10.992Z,67.61
2019-01-16T05:51:59.108Z,67.36
2019-01-16T05:54:47.282Z,67.18
2019-01-16T05:57:35.393Z,67.00
2019-01-16T06:00:44.011Z,67.23
2019-01-16T06:03:32.204Z,66.82
2019-01-16T06:06:20.390Z,66.45
2019-01-16T06:09:08.512Z,66.41
2019-01-16T06:11:56.793Z,66.32
2019-01-16T06:14:44.962Z,66.65
2019-01-16T06:17:33.359Z,66.64
2019-01-16T06:20:21.498Z,66.28
2019-01-16T06:23:09.627Z,66.27
2019-01-16T06:25:57.800Z,66.09
2019-01-16T06:28:45.979Z,65.99
2019-01-16T06:31:34.086Z,66.35
2019-01-16T06:34:22.216Z,66.55
2019-01-16T06:37:10.525Z,66.82
2019-01-16T06:39:58.653Z,66.80
2019-01-16T06:42:46.768Z,66.73
2019-01-16T06:45:34.900Z,66.69
2019-01-16T06:48:23.108Z,66.35
2019-01-16T06:51:06.919Z,66.39
2019-01-16T06:53:55.033Z,66.34
2019-01-16T06:56:43.562Z,66.19
2019-01-16T06:59:32.002Z,66.13
2019-01-16T07:02:20.108Z,65.54
2019-01-16T07:05:08.348Z,65.91
2019-01-16T07:07:56.455Z,65.61
2019-01-16T07:10:44.593Z,65.92
2019-01-16T07:13:32.707Z,65.83
2019-01-16T07:16:20.946Z,65.58
2019-01-16T07:19:09.063Z,65.53
2019-01-16T07:21:57.203Z,65.05
2019-01-16T07:24:45.302Z,64.85
2019-01-16T07:27:24.992Z,64.87
2019-01-16T07:30:13.114Z,64.57
2019-01-16T07:33:01.251Z,64.63
2019-01-16T07:35:49.388Z,64.28
2019-01-16T07:38:37.565Z,64.29
2019-01-16T07:41:28.567Z,64.50
2019-01-16T07:44:17.089Z,65.04
2019-01-16T07:47:05.270Z,64.73
2019-01-16T07:49:53.506Z,64.57
2019-01-16T07:52:32.083Z,64.01
2019-01-16T07:55:20.296Z,63.94
2019-01-16T07:58:05.001Z,63.27
2019-01-16T08:00:53.153Z,62.85
2019-01-16T08:03:41.272Z,63.07
2019-01-16T08:06:29.421Z,63.24
2019-01-16T08:09:17.528Z,63.39
2019-01-16T08:12:05.690Z,63.64
2019-01-16T08:14:54.077Z,63.55
2019-01-16T08:17:42.209Z,63.62
2019-01-16T08:20:30.318Z,63.47
2019-01-16T08:23:18.734Z,63.22
2019-01-16T08:26:06.931Z,62.63
2019-01-16T08:28:55.094Z,61.93
2019-01-16T08:31:36.959Z,61.48
2019-01-16T08:34:45.557Z,61.88
2019-01-16T08:37:33.677Z,61.60
2019-01-16T08:40:22.115Z,61.13
2019-01-16T08:43:10.256Z,60.93
2019-01-16T08:45:47.413Z,60.73
2019-01-16T08:48:35.545Z,60.70
2019-01-16T08:54:32.304Z,60.41
2019-01-16T08:57:20.682Z,60.21
2019-01-16T09:00:08.819Z,60.13
2019-01-16T09:02:56.923Z,59.29
2019-01-16T09:05:37.751Z,58.82
2019-01-16T09:08:26.132Z,59.10
2019-01-16T09:11:14.277Z,58.37
2019-01-16T09:14:02.672Z,58.34
2019-01-16T09:16:50.934Z,58.17
2019-01-16T09:19:39.332Z,57.87
2019-01-16T09:22:27.718Z,57.72
2019-01-16T09:25:15.844Z,57.74
2019-01-16T09:28:03.978Z,57.33
2019-01-16T09:30:52.113Z,57.21
2019-01-16T09:33:40.740Z,56.97
2019-01-16T09:36:28.947Z,56.95
2019-01-16T09:39:17.107Z,56.69
2019-01-16T09:42:05.566Z,56.80
2019-01-16T09:44:53.671Z,56.61
2019-01-16T09:47:41.830Z,56.10
2019-01-16T09:50:24.197Z,55.65
2019-01-16T09:53:12.420Z,55.46
2019-01-16T09:56:00.557Z,55.36
2019-01-16T09:58:48.787Z,54.94
2019-01-16T10:01:36.925Z,54.78
2019-01-16T10:04:25.315Z,54.59
2019-01-16T10:07:13.535Z,54.43
2019-01-16T10:10:01.921Z,54.69
2019-01-16T10:12:50.052Z,54.76
2019-01-16T10:15:38.286Z,54.59
2019-01-16T10:18:26.422Z,54.46
2019-01-16T10:21:14.535Z,54.29
2019-01-16T10:24:02.969Z,54.28
2019-01-16T10:26:38.855Z,54.22
2019-01-16T10:29:27.271Z,54.08
2019-01-16T10:32:15.714Z,54.06
2019-01-16T10:35:03.823Z,53.55
2019-01-16T10:37:51.962Z,53.44
2019-01-16T10:40:40.074Z,53.55
2019-01-16T10:43:15.605Z,53.37
2019-01-16T10:46:04.011Z,53.97
2019-01-16T10:48:52.173Z,53.77
2019-01-16T10:51:40.304Z,53.47
2019-01-16T10:54:28.434Z,52.95
2019-01-16T10:57:10.814Z,52.85
2019-01-16T10:59:59.390Z,52.51
2019-01-16T11:02:37.965Z,52.22
2019-01-16T11:05:46.571Z,52.41
2019-01-16T11:08:34.728Z,52.39
2019-01-16T11:11:22.960Z,51.92
2019-01-16T11:14:11.095Z,51.44
2019-01-16T11:16:59.205Z,50.75
2019-01-16T11:19:47.333Z,50.85
2019-01-16T11:22:35.710Z,50.28
2019-01-16T11:25:44.357Z,50.03
2019-01-16T11:28:32.485Z,50.24
2019-01-16T11:31:20.921Z,50.50
2019-01-16T11:34:09.031Z,50.37
2019-01-16T11:36:57.163Z,50.27
2019-01-16T11:39:45.375Z,50.06
2019-01-16T11:42:33.541Z,50.01
2019-01-16T11:45:21.656Z,49.53
2019-01-16T11:48:05.088Z,48.96
2019-01-16T11:50:53.219Z,48.32
2019-01-16T11:53:41.652Z,48.51
2019-01-16T11:56:29.780Z,48.20
2019-01-16T11:59:18.165Z,45.98
2019-01-16T12:02:06.370Z,46.53
2019-01-16T12:04:54.588Z,47.13
2019-01-16T12:07:42.636Z,46.64
2019-01-16T12:10:31.809Z,45.16
2019-01-16T12:13:20.017Z,45.33
2019-01-16T12:16:08.424Z,45.63
2019-01-16T12:18:56.562Z,45.36
2019-01-16T12:21:44.671Z,44.88
2019-01-16T12:24:21.649Z,46.67
2019-01-16T12:27:09.770Z,48.23
2019-01-16T12:29:57.946Z,48.66
2019-01-16T12:32:33.764Z,49.14
2019-01-16T12:35:21.899Z,49.24
2019-01-16T12:38:10.011Z,49.46
2019-01-16T12:40:58.154Z,49.29
2019-01-16T12:43:37.914Z,49.60
2019-01-16T12:46:26.043Z,49.27
2019-01-16T12:49:14.160Z,49.52
2019-01-16T12:52:02.290Z,49.65
2019-01-16T12:54:50.426Z,49.92
2019-01-16T12:57:38.542Z,49.83
2019-01-16T13:06:19.009Z,50.37
2019-01-16T13:09:07.166Z,50.27
2019-01-16T13:11:55.594Z,50.49
2019-01-16T13:14:44.161Z,50.47
2019-01-16T13:17:25.273Z,49.88
2019-01-16T13:20:13.403Z,49.02
2019-01-16T13:25:46.781Z,47.14
2019-01-16T13:28:34.944Z,45.38
2019-01-16T13:31:23.105Z,43.47
2019-01-16T13:34:11.490Z,42.89
2019-01-16T13:36:59.622Z,42.68
2019-01-16T13:39:48.019Z,42.53
2019-01-16T13:42:36.202Z,42.68
2019-01-16T13:45:45.305Z,42.93
2019-01-16T13:48:33.453Z,42.95
2019-01-16T13:51:21.712Z,42.83
2019-01-16T13:54:10.129Z,42.56
2019-01-16T13:56:50.922Z,42.13
2019-01-16T13:59:29.367Z,42.32
2019-01-16T14:02:17.717Z,41.71
2019-01-16T14:05:05.859Z,41.33
2019-01-16T14:07:54.058Z,41.27
2019-01-16T14:10:42.466Z,41.95
2019-01-16T14:13:30.609Z,39.80
2019-01-16T14:16:19.079Z,39.12
2019-01-16T14:19:07.216Z,38.65
2019-01-16T14:21:55.691Z,37.73
2019-01-16T14:24:43.826Z,36.63
2019-01-16T14:27:32.636Z,36.26
2019-01-16T14:30:20.777Z,35.25
2019-01-16T14:33:08.890Z,32.50
2019-01-16T14:35:44.543Z,29.05
2019-01-16T14:38:32.783Z,27.08
2019-01-16T14:41:21.184Z,26.29
2019-01-16T14:44:09.322Z,27.13
2019-01-16T14:50:06.089Z,29.72
2019-01-16T14:52:54.214Z,32.67
2019-01-16T14:55:42.362Z,35.18
2019-01-16T14:58:30.581Z,36.96
2019-01-16T15:01:18.720Z,38.69
2019-01-16T15:04:06.859Z,39.58
2019-01-16T15:06:55.271Z,40.45
2019-01-16T15:09:43.404Z,41.35
2019-01-16T15:12:31.638Z,41.39
2019-01-16T15:15:20.072Z,41.56
2019-01-16T15:17:58.714Z,42.62
2019-01-16T15:20:46.825Z,42.86
2019-01-16T15:23:34.966Z,44.38
2019-01-16T15:29:31.735Z,44.41
2019-01-16T15:32:08.918Z,43.74
2019-01-16T15:34:57.423Z,43.38
2019-01-16T15:37:37.387Z,44.05
2019-01-16T15:40:27.962Z,44.68
2019-01-16T15:43:16.064Z,44.28
2019-01-16T15:46:04.473Z,44.56
2019-01-16T15:48:52.580Z,44.59
2019-01-16T15:51:40.870Z,45.15
2019-01-16T15:54:29.246Z,44.94
2019-01-16T15:57:17.659Z,45.10
2019-01-16T16:00:05.763Z,45.46
2019-01-16T16:02:52.540Z,45.90
2019-01-16T16:05:40.642Z,46.09
2019-01-16T16:08:29.133Z,46.51
2019-01-16T16:11:17.311Z,46.88
2019-01-16T16:14:05.483Z,47.12
2019-01-16T16:16:53.598Z,46.93
2019-01-16T16:19:41.736Z,47.22
2019-01-16T16:22:29.876Z,47.32
2019-01-16T16:25:18.031Z,47.54
2019-01-16T16:28:06.141Z,47.49
2019-01-16T16:30:54.603Z,47.69
2019-01-16T16:33:42.743Z,47.46
2019-01-16T16:36:32.120Z,47.72
2019-01-16T16:39:20.563Z,47.82
2019-01-16T16:42:09.063Z,47.69
2019-01-16T16:44:57.226Z,47.71
2019-01-16T16:47:45.404Z,47.97
2019-01-16T16:50:33.626Z,48.06
2019-01-16T16:53:21.791Z,48.13
2019-01-16T16:56:09.970Z,48.25
2019-01-16T16:58:58.119Z,48.66
2019-01-16T17:01:46.227Z,48.79
2019-01-16T17:04:25.737Z,48.95
2019-01-16T17:07:13.860Z,49.24
2019-01-16T17:10:02.062Z,49.48
2019-01-16T17:12:50.263Z,49.74
2019-01-16T17:15:38.017Z,50.14
2019-01-16T17:18:26.308Z,50.19
2019-01-16T17:21:14.540Z,50.28
2019-01-16T17:24:02.764Z,50.50
2019-01-16T17:26:50.931Z,50.68
2019-01-16T17:29:39.039Z,50.82
2019-01-16T17:32:27.208Z,51.13
2019-01-16T17:35:15.338Z,51.40
2019-01-16T17:38:03.478Z,51.53
2019-01-16T17:40:51.709Z,51.27
2019-01-16T17:43:39.837Z,51.66
2019-01-16T17:46:27.955Z,51.67
2019-01-16T17:49:16.130Z,51.51
2019-01-16T17:52:04.267Z,51.63
2019-01-16T17:54:52.449Z,51.55
2019-01-16T17:57:40.618Z,51.81
2019-01-16T18:00:30.265Z,52.22
2019-01-16T18:03:18.462Z,52.04
2019-01-16T18:06:06.633Z,52.55
2019-01-16T18:08:55.021Z,52.39
2019-01-16T18:11:43.183Z,52.46
2019-01-16T18:14:31.565Z,52.92
2019-01-16T18:17:19.766Z,52.71
2019-01-16T18:20:07.875Z,53.18
2019-01-16T18:22:47.802Z,53.01
2019-01-16T18:25:35.932Z,52.60
2019-01-16T18:28:24.176Z,52.79
2019-01-16T18:31:12.306Z,52.96
2019-01-16T18:33:54.725Z,52.81
2019-01-16T18:36:42.961Z,53.11
2019-01-16T18:39:28.272Z,53.39
2019-01-16T18:42:16.458Z,53.43
2019-01-16T18:45:04.560Z,53.83
2019-01-16T18:47:53.038Z,53.96
2019-01-16T18:50:33.445Z,53.81
2019-01-16T18:53:21.587Z,54.14
2019-01-16T18:56:10.052Z,54.28
2019-01-16T18:58:58.325Z,54.49
2019-01-16T19:01:46.571Z,54.73
2019-01-16T19:04:35.634Z,54.76
2019-01-16T19:10:18.628Z,55.08
2019-01-16T19:13:07.657Z,55.30
2019-01-16T19:15:55.829Z,55.45
2019-01-16T19:18:43.965Z,55.51
2019-01-16T19:21:20.726Z,55.75
2019-01-16T19:24:08.857Z,55.80
2019-01-16T19:26:56.991Z,56.00
2019-01-16T19:29:45.129Z,55.99
2019-01-16T19:32:33.254Z,56.04
2019-01-16T19:35:09.378Z,56.25
2019-01-16T19:37:57.561Z,56.41
2019-01-16T19:40:45.739Z,56.04
2019-01-16T19:43:33.977Z,56.09
2019-01-16T19:46:17.217Z,56.49
2019-01-16T19:49:05.385Z,56.47
2019-01-16T19:51:45.405Z,56.46
2019-01-16T19:54:33.539Z,56.58
2019-01-16T19:57:21.643Z,56.48
2019-01-16T20:00:09.787Z,56.39
2019-01-16T20:02:58.211Z,56.50
2019-01-16T20:05:46.718Z,56.45
2019-01-16T20:08:53.920Z,56.40
2019-01-16T20:11:42.050Z,56.64
2019-01-16T20:14:32.041Z,56.66
2019-01-16T20:17:20.198Z,56.47
2019-01-16T20:20:08.291Z,56.28
2019-01-16T20:22:56.438Z,56.31
2019-01-16T20:25:45.013Z,56.60
2019-01-16T20:28:33.141Z,56.24
2019-01-16T20:31:21.981Z,56.45
2019-01-16T20:34:10.106Z,56.13
2019-01-16T20:36:58.242Z,56.37
2019-01-16T20:39:46.360Z,56.29
2019-01-16T20:42:34.490Z,56.23
2019-01-16T20:48:31.168Z,55.94
2019-01-16T20:51:19.597Z,55.86
2019-01-16T20:54:07.736Z,55.78
2019-01-16T20:56:49.822Z,55.62
2019-01-16T20:59:37.970Z,55.40
2019-01-16T21:02:26.119Z,55.73
2019-01-16T21:05:14.227Z,56.47
2019-01-16T21:08:02.646Z,56.31
2019-01-16T21:10:50.757Z,56.03
2019-01-16T21:13:38.878Z,55.93
2019-01-16T21:16:26.991Z,55.23
2019-01-16T21:19:15.122Z,56.51
2019-01-16T21:22:03.227Z,56.40
2019-01-16T21:24:51.630Z,55.89
2019-01-16T21:27:39.763Z,56.13
2019-01-16T21:30:30.522Z,55.48
2019-01-16T21:33:18.626Z,55.36
2019-01-16T21:35:59.127Z,54.60
2019-01-16T21:38:47.808Z,54.66
2019-01-16T21:41:31.528Z,54.32
2019-01-16T21:44:19.639Z,54.68
2019-01-16T21:47:07.891Z,54.83
2019-01-16T21:49:56.014Z,54.57
2019-01-16T21:52:44.571Z,54.74
2019-01-16T21:55:32.792Z,54.72
2019-01-16T21:58:11.364Z,54.60
2019-01-16T22:00:59.486Z,54.60
2019-01-16T22:03:47.926Z,54.43
2019-01-16T22:06:36.036Z,54.20
2019-01-16T22:09:44.638Z,54.39
2019-01-16T22:12:33.382Z,54.17
2019-01-16T22:15:16.669Z,54.02
2019-01-16T22:17:56.959Z,53.77
2019-01-16T22:20:45.112Z,53.56
2019-01-16T22:23:36.664Z,53.38
2019-01-16T22:29:31.707Z,54.05
2019-01-16T22:32:19.870Z,53.91
2019-01-16T22:35:08.331Z,53.77
2019-01-16T22:37:45.890Z,54.02
2019-01-16T22:40:34.117Z,54.27
2019-01-16T22:43:22.236Z,54.59
2019-01-16T22:46:10.642Z,54.65
2019-01-16T22:49:17.840Z,54.46
2019-01-16T22:52:06.004Z,54.83
2019-01-16T22:54:54.501Z,54.76
2019-01-16T22:57:42.607Z,54.57
2019-01-16T23:00:54.827Z,54.34
2019-01-16T23:03:42.941Z,54.68
2019-01-16T23:06:31.070Z,54.63
2019-01-16T23:09:19.180Z,54.93
2019-01-16T23:12:07.590Z,55.20
2019-01-16T23:14:55.719Z,55.58
2019-01-16T23:17:43.977Z,55.54
2019-01-16T23:20:32.194Z,55.33
2019-01-16T23:23:20.322Z,55.45
2019-01-16T23:26:08.724Z,55.84
2019-01-16T23:28:56.855Z,55.94
2019-01-16T23:31:44.985Z,55.78
2019-01-16T23:34:33.131Z,55.63
2019-01-16T23:37:11.314Z,55.84
2019-01-16T23:39:59.423Z,55.62
2019-01-16T23:42:47.565Z,55.86
2019-01-16T23:45:35.671Z,55.63
2019-01-16T23:48:21.268Z,55.94
2019-01-16T23:51:09.384Z,55.61
2019-01-16T23:53:57.528Z,55.61
2019-01-16T23:56:45.641Z,55.49
2019-01-16T23:59:34.052Z,54.99
